Riverton, Wyoming
Current Conditions -  °F | °C
As of 10:53 PM on Monday 20 Oct 2014 (Local Time) from KRIW Reporting Station
Clear Clear  
Wind Chill: 54°   Ceiling: Unl
Heat Index: 54°   Visibility: 10mi
Dew Point: 30°   Wind: 10mph
Humidity: 40%   Direction: 260°W
Pressure: 29.98"   Gusts: NA
Location:  43.02°N, 108.38°W
Report Text: KRIW 210453Z AUTO 26009KT 10SM CLR 12/M01 A2998 RMK AO2 SLP115 T01221011
Loading
Personal Weather Stations






























Interactive Weather Map
Tropical Storm Tracking
New forecast layout! Learn more

10-Day Weather Forecast

Advertisements
Track Severe Weather on mobile